createdAt,value
2022-11-19T00:01:26.532Z,61.20
2022-11-19T00:03:53.608Z,61.20
2022-11-19T00:06:22.750Z,61.20
2022-11-19T00:08:50.000Z,61.20
2022-11-19T00:11:38.203Z,61.20
2022-11-19T00:14:05.434Z,61.20
2022-11-19T00:16:32.321Z,61.30
2022-11-19T00:18:59.413Z,61.30
2022-11-19T00:21:26.339Z,61.30
2022-11-19T00:23:54.723Z,61.20
2022-11-19T00:26:22.781Z,61.30
2022-11-19T00:28:49.756Z,61.30
2022-11-19T00:31:17.393Z,61.40
2022-11-19T00:33:45.522Z,61.40
2022-11-19T00:36:15.171Z,61.40
2022-11-19T00:38:42.786Z,61.40
2022-11-19T00:41:10.079Z,61.30
2022-11-19T00:43:49.448Z,61.40
2022-11-19T00:46:20.652Z,61.40
2022-11-19T00:48:49.326Z,61.50
2022-11-19T00:51:17.379Z,61.40
2022-11-19T00:53:44.358Z,61.50
2022-11-19T00:56:14.010Z,61.50
2022-11-19T00:58:42.001Z,61.50
2022-11-19T01:01:09.860Z,61.60
2022-11-19T01:03:38.484Z,61.50
2022-11-19T01:06:06.063Z,61.50
2022-11-19T01:08:33.083Z,61.40
2022-11-19T01:11:12.129Z,61.50
2022-11-19T01:16:10.485Z,60.80
2022-11-19T01:18:39.118Z,61.60
2022-11-19T01:21:07.287Z,61.50
2022-11-19T01:23:34.689Z,61.50
2022-11-19T01:26:02.159Z,61.50
2022-11-19T01:28:29.701Z,61.50
2022-11-19T01:30:56.769Z,61.50
2022-11-19T01:33:23.779Z,61.60
2022-11-19T01:36:01.696Z,61.60
2022-11-19T01:38:30.188Z,61.50
2022-11-19T01:40:58.375Z,61.60
2022-11-19T01:43:49.990Z,61.60
2022-11-19T01:46:23.762Z,61.60
2022-11-19T01:49:11.625Z,61.60
2022-11-19T01:51:43.161Z,61.60
2022-11-19T01:54:21.625Z,61.60
2022-11-19T01:56:48.710Z,61.60
2022-11-19T01:59:18.938Z,61.60
2022-11-19T02:01:46.354Z,61.60
2022-11-19T02:04:16.657Z,61.60
2022-11-19T02:06:45.276Z,61.60
2022-11-19T02:09:12.231Z,61.70
2022-11-19T02:12:21.646Z,61.70
2022-11-19T02:14:54.891Z,61.80
2022-11-19T02:17:47.252Z,61.80
2022-11-19T02:23:21.176Z,60.90
2022-11-19T02:25:48.027Z,61.70
2022-11-19T02:28:46.854Z,61.70
2022-11-19T02:31:43.576Z,61.70
2022-11-19T02:34:21.980Z,61.80
2022-11-19T02:37:08.003Z,61.80
2022-11-19T02:39:48.907Z,61.80
2022-11-19T02:42:21.828Z,61.80
2022-11-19T02:45:13.457Z,61.80
2022-11-19T02:47:52.695Z,61.80
2022-11-19T02:50:32.374Z,61.90
2022-11-19T02:52:59.632Z,61.80
2022-11-19T02:55:27.992Z,61.90
2022-11-19T02:58:04.241Z,61.80
2022-11-19T03:01:01.755Z,61.90
2022-11-19T03:03:48.318Z,61.90
2022-11-19T03:06:26.986Z,61.90
2022-11-19T03:08:54.167Z,61.90
2022-11-19T03:11:22.578Z,62.00
2022-11-19T03:14:16.945Z,61.90
2022-11-19T03:17:02.699Z,62.00
2022-11-19T03:19:43.277Z,61.90
2022-11-19T03:22:24.916Z,62.00
2022-11-19T03:25:18.318Z,62.00
2022-11-19T03:27:52.682Z,62.90
2022-11-19T03:30:20.319Z,62.00
2022-11-19T03:33:08.642Z,62.10
2022-11-19T03:35:50.689Z,62.10
2022-11-19T03:38:22.039Z,62.10
2022-11-19T03:40:50.869Z,62.10
2022-11-19T03:43:19.631Z,62.10
2022-11-19T03:45:48.931Z,62.20
2022-11-19T03:48:17.120Z,62.10
2022-11-19T03:50:54.802Z,62.20
2022-11-19T03:53:22.528Z,62.20
2022-11-19T03:57:45.260Z,61.40
2022-11-19T04:00:13.120Z,62.20
2022-11-19T04:02:40.703Z,63.00
2022-11-19T04:05:08.111Z,62.20
2022-11-19T04:07:35.315Z,62.20
2022-11-19T04:10:02.267Z,62.20
2022-11-19T04:12:29.163Z,62.20
2022-11-19T04:14:56.101Z,62.20
2022-11-19T04:17:22.988Z,62.20
2022-11-19T04:19:49.920Z,62.20
2022-11-19T04:22:16.885Z,62.30
2022-11-19T04:24:43.845Z,62.20
2022-11-19T04:27:10.804Z,62.20
2022-11-19T04:29:37.831Z,62.30
2022-11-19T04:32:04.997Z,62.30
2022-11-19T04:34:32.003Z,62.40
2022-11-19T04:36:58.909Z,62.40
2022-11-19T04:39:26.852Z,62.30
2022-11-19T04:41:53.938Z,62.30
2022-11-19T04:44:20.929Z,62.30
2022-11-19T04:46:47.847Z,62.40
2022-11-19T04:49:14.811Z,62.40
2022-11-19T04:51:41.688Z,62.40
2022-11-19T04:54:11.395Z,62.40
2022-11-19T04:56:38.330Z,62.30
2022-11-19T04:59:05.681Z,62.30
2022-11-19T05:01:32.650Z,62.30
2022-11-19T05:03:59.776Z,62.40
2022-11-19T05:06:26.725Z,62.40
2022-11-19T05:08:53.748Z,62.30
2022-11-19T05:11:20.664Z,62.40
2022-11-19T05:13:47.677Z,62.40
2022-11-19T05:16:14.703Z,62.40
2022-11-19T05:18:41.594Z,62.30
2022-11-19T05:21:08.517Z,62.30
2022-11-19T05:23:35.451Z,62.40
2022-11-19T05:26:02.411Z,62.40
2022-11-19T05:28:38.483Z,62.40
2022-11-19T05:31:06.103Z,62.40
2022-11-19T05:33:34.596Z,62.40
2022-11-19T05:36:02.147Z,62.40
2022-11-19T05:38:29.235Z,62.30
2022-11-19T05:40:56.168Z,62.40
2022-11-19T05:43:23.119Z,62.40
2022-11-19T05:45:50.134Z,62.50
2022-11-19T05:48:17.029Z,62.40
2022-11-19T05:50:43.926Z,63.40
2022-11-19T05:53:11.045Z,62.40
2022-11-19T05:55:37.931Z,62.50
2022-11-19T05:58:05.018Z,62.50
2022-11-19T06:00:31.944Z,62.50
2022-11-19T06:02:59.010Z,63.40
2022-11-19T06:05:26.130Z,62.50
2022-11-19T06:07:53.129Z,62.50
2022-11-19T06:10:20.022Z,62.60
2022-11-19T06:12:46.949Z,62.70
2022-11-19T06:15:14.692Z,62.60
2022-11-19T06:17:41.894Z,62.70
2022-11-19T06:20:11.279Z,62.70
2022-11-19T06:22:38.692Z,62.70
2022-11-19T06:25:07.805Z,63.00
2022-11-19T06:27:35.188Z,62.70
2022-11-19T06:30:02.293Z,62.70
2022-11-19T06:32:29.311Z,62.70
2022-11-19T06:34:56.328Z,62.80
2022-11-19T06:37:23.450Z,62.80
2022-11-19T06:39:50.532Z,62.80
2022-11-19T06:42:36.265Z,62.90
2022-11-19T06:45:09.693Z,62.90
2022-11-19T06:47:37.981Z,62.90
2022-11-19T06:50:06.919Z,62.90
2022-11-19T06:52:33.759Z,62.90
2022-11-19T06:55:00.798Z,62.80
2022-11-19T06:57:27.779Z,62.90
2022-11-19T06:59:54.695Z,62.80
2022-11-19T07:02:21.960Z,62.90
2022-11-19T07:04:49.173Z,62.90
2022-11-19T07:07:16.225Z,63.00
2022-11-19T07:09:43.142Z,62.90
2022-11-19T07:12:10.518Z,62.80
2022-11-19T07:14:38.263Z,62.20
2022-11-19T07:17:06.316Z,62.90
2022-11-19T07:19:33.375Z,63.00
2022-11-19T07:22:00.420Z,63.00
2022-11-19T07:24:27.328Z,63.00
2022-11-19T07:26:56.165Z,63.50
2022-11-19T07:29:23.465Z,63.10
2022-11-19T07:31:51.017Z,63.10
2022-11-19T07:34:18.292Z,63.30
2022-11-19T07:36:46.031Z,64.10
2022-11-19T07:39:13.527Z,62.50
2022-11-19T07:41:59.192Z,63.30
2022-11-19T07:44:26.184Z,63.30
2022-11-19T07:46:53.464Z,63.40
2022-11-19T07:49:21.059Z,63.30
2022-11-19T07:51:48.186Z,63.30
2022-11-19T07:54:15.252Z,63.30
2022-11-19T07:56:42.418Z,63.30
2022-11-19T07:59:10.239Z,63.30
2022-11-19T08:01:38.098Z,63.30
2022-11-19T08:04:05.690Z,63.30
2022-11-19T08:06:34.697Z,61.80
2022-11-19T08:09:03.007Z,63.20
2022-11-19T08:11:30.337Z,63.20
2022-11-19T08:14:02.018Z,63.20
2022-11-19T08:16:47.669Z,63.20
2022-11-19T08:19:16.519Z,63.40
2022-11-19T08:21:44.669Z,63.30
2022-11-19T08:26:41.268Z,62.50
2022-11-19T08:29:13.015Z,63.20
2022-11-19T08:31:43.986Z,63.20
2022-11-19T08:34:11.023Z,63.30
2022-11-19T08:36:37.959Z,63.30
2022-11-19T08:39:05.024Z,63.30
2022-11-19T08:41:50.815Z,63.30
2022-11-19T08:44:18.189Z,63.40
2022-11-19T08:46:45.672Z,63.50
2022-11-19T08:49:13.273Z,63.40
2022-11-19T08:51:40.672Z,63.40
2022-11-19T08:54:07.819Z,63.40
2022-11-19T10:13:20.550Z,62.50
2022-11-19T10:16:11.094Z,63.40
2022-11-19T10:18:50.234Z,63.40
2022-11-19T10:21:33.685Z,63.50
2022-11-19T10:24:23.862Z,63.50
2022-11-19T10:27:04.311Z,63.40
2022-11-19T10:29:39.147Z,63.40
2022-11-19T10:32:22.120Z,63.40
2022-11-19T10:34:54.228Z,63.50
2022-11-19T10:38:52.238Z,62.80
2022-11-19T10:41:35.903Z,63.50
2022-11-19T10:44:37.520Z,63.50
2022-11-19T10:47:33.654Z,63.40
2022-11-19T10:50:00.605Z,63.40
2022-11-19T10:52:37.104Z,63.40
2022-11-19T10:55:23.285Z,63.50
2022-11-19T10:58:00.830Z,63.40
2022-11-19T11:00:27.721Z,63.60
2022-11-19T11:03:03.204Z,63.60
2022-11-19T11:05:31.423Z,63.70
2022-11-19T11:08:01.193Z,63.50
2022-11-19T11:10:55.067Z,63.90
2022-11-19T11:13:57.259Z,63.60
2022-11-19T11:16:38.706Z,63.00
2022-11-19T11:19:13.993Z,63.70
2022-11-19T11:21:43.779Z,63.70
2022-11-19T11:24:14.789Z,63.60
2022-11-19T11:26:42.104Z,63.50
2022-11-19T11:29:15.413Z,62.70
2022-11-19T11:31:45.429Z,63.50
2022-11-19T11:34:37.023Z,63.50
2022-11-19T11:37:06.744Z,64.40
2022-11-19T11:39:39.293Z,63.50
2022-11-19T11:42:17.444Z,63.60
2022-11-19T11:45:00.389Z,63.60
2022-11-19T11:47:32.312Z,63.50
2022-11-19T11:50:15.169Z,63.60
2022-11-19T11:52:43.728Z,63.60
2022-11-19T11:55:32.305Z,63.60
2022-11-19T11:58:24.059Z,62.80
2022-11-19T12:03:55.118Z,62.70
2022-11-19T12:06:34.944Z,63.30
2022-11-19T12:09:31.310Z,63.10
2022-11-19T12:15:16.443Z,62.60
2022-11-19T12:17:46.936Z,63.40
2022-11-19T12:20:21.193Z,63.50
2022-11-19T12:23:06.671Z,63.40
2022-11-19T12:25:42.550Z,63.50
2022-11-19T12:28:25.542Z,63.50
2022-11-19T12:31:14.654Z,63.50
2022-11-19T12:34:07.990Z,63.50
2022-11-19T12:37:12.829Z,63.50
2022-11-19T12:40:16.798Z,63.40
2022-11-19T12:42:57.965Z,63.40
2022-11-19T12:46:04.839Z,63.40
2022-11-19T12:49:01.165Z,63.40
2022-11-19T12:51:58.684Z,63.40
2022-11-19T12:54:50.904Z,63.30
2022-11-19T12:57:26.985Z,63.30
2022-11-19T12:59:57.324Z,63.30
2022-11-19T13:02:35.835Z,63.30
2022-11-19T13:05:10.935Z,63.30
2022-11-19T13:07:43.657Z,63.30
2022-11-19T13:10:25.218Z,63.30
2022-11-19T13:12:57.347Z,63.30
2022-11-19T13:15:34.649Z,63.20
2022-11-19T13:18:05.190Z,63.20
2022-11-19T13:20:44.124Z,63.20
2022-11-19T13:23:14.294Z,63.20
2022-11-19T13:25:50.316Z,63.30
2022-11-19T13:28:40.730Z,63.20
2022-11-19T13:31:17.081Z,63.30
2022-11-19T13:33:52.756Z,63.30
2022-11-19T13:36:24.685Z,63.50
2022-11-19T13:39:10.361Z,63.50
2022-11-19T13:42:05.207Z,63.50
2022-11-19T13:44:38.980Z,63.50
2022-11-19T13:47:13.773Z,63.50
2022-11-19T13:49:45.920Z,63.50
2022-11-19T13:52:20.782Z,63.60
2022-11-19T13:54:48.021Z,62.70
2022-11-19T13:57:32.233Z,63.60
2022-11-19T14:00:07.623Z,63.60
2022-11-19T14:03:22.600Z,63.50
2022-11-19T14:06:08.374Z,63.50
2022-11-19T14:09:06.295Z,63.50
2022-11-19T14:11:42.259Z,63.60
2022-11-19T14:14:40.804Z,63.70
2022-11-19T14:17:37.395Z,63.70
2022-11-19T14:20:48.915Z,63.50
2022-11-19T14:24:00.959Z,63.60
2022-11-19T14:26:43.049Z,63.50
2022-11-19T14:29:19.697Z,63.40
2022-11-19T14:32:06.507Z,63.50
2022-11-19T14:34:37.066Z,63.50
2022-11-19T14:37:20.544Z,63.50
2022-11-19T14:39:58.049Z,63.50
2022-11-19T14:42:25.202Z,63.50
2022-11-19T14:45:01.121Z,63.50
2022-11-19T14:47:35.491Z,63.50
2022-11-19T14:50:08.120Z,63.50
2022-11-19T14:52:50.571Z,63.50
2022-11-19T14:55:33.780Z,63.60
2022-11-19T14:58:07.549Z,63.50
2022-11-19T15:00:41.099Z,63.60
2022-11-19T15:03:15.195Z,63.60
2022-11-19T15:05:45.550Z,63.60
2022-11-19T15:08:18.730Z,63.60
2022-11-19T15:11:07.182Z,63.60
2022-11-19T15:13:48.351Z,63.70
2022-11-19T15:16:17.177Z,63.60
2022-11-19T15:18:44.526Z,63.60
2022-11-19T15:21:26.710Z,63.60
2022-11-19T15:24:31.303Z,63.60
2022-11-19T15:26:58.338Z,63.60
2022-11-19T15:29:44.395Z,63.60
2022-11-19T15:32:20.310Z,63.60
2022-11-19T15:35:10.257Z,63.60
2022-11-19T15:37:44.940Z,63.70
2022-11-19T15:40:17.238Z,63.50
2022-11-19T15:43:04.615Z,64.50
2022-11-19T15:45:38.934Z,63.60
2022-11-19T15:48:17.583Z,63.60
2022-11-19T15:50:44.818Z,63.60
2022-11-19T15:53:17.320Z,63.60
2022-11-19T15:55:59.155Z,63.70
2022-11-19T15:58:35.094Z,63.70
2022-11-19T16:01:02.912Z,63.80
2022-11-19T16:03:32.289Z,63.80
2022-11-19T16:06:05.598Z,63.80
2022-11-19T16:08:33.282Z,63.70
2022-11-19T16:11:20.798Z,63.00
2022-11-19T16:14:13.549Z,63.10
2022-11-19T16:16:59.494Z,63.80
2022-11-19T16:19:26.464Z,63.70
2022-11-19T16:22:05.224Z,63.70
2022-11-19T16:24:51.027Z,63.70
2022-11-19T16:27:24.064Z,63.80
2022-11-19T16:29:51.873Z,63.70
2022-11-19T16:32:21.848Z,63.70
2022-11-19T16:34:49.318Z,63.70
2022-11-19T16:37:19.444Z,63.70
2022-11-19T16:39:54.024Z,63.60
2022-11-19T16:42:27.057Z,63.70
2022-11-19T16:45:10.343Z,63.70
2022-11-19T16:47:40.464Z,63.60
2022-11-19T16:50:25.285Z,63.70
2022-11-19T16:52:52.549Z,63.70
2022-11-19T16:55:19.925Z,63.60
2022-11-19T16:57:49.412Z,63.70
2022-11-19T17:00:20.282Z,63.60
2022-11-19T17:02:48.562Z,63.60
2022-11-19T17:05:21.826Z,63.70
2022-11-19T17:08:03.787Z,62.80
2022-11-19T17:10:32.045Z,63.60
2022-11-19T17:13:24.514Z,63.70
2022-11-19T17:15:52.974Z,63.70
2022-11-19T17:18:35.450Z,63.60
2022-11-19T17:21:05.299Z,63.60
2022-11-19T17:23:35.035Z,63.70
2022-11-19T17:26:08.358Z,63.70
2022-11-19T17:28:38.337Z,63.60
2022-11-19T17:31:29.219Z,63.70
2022-11-19T17:34:04.627Z,64.80
2022-11-19T17:36:31.908Z,63.70
2022-11-19T17:38:59.373Z,63.80
2022-11-19T17:41:48.309Z,63.80
2022-11-19T17:44:37.083Z,63.80
2022-11-19T17:47:21.188Z,63.80
2022-11-19T17:49:49.771Z,63.90
2022-11-19T17:52:31.669Z,63.90
2022-11-19T17:55:11.228Z,63.90
2022-11-19T17:57:42.377Z,63.90
2022-11-19T18:00:11.126Z,63.80
2022-11-19T18:02:38.689Z,63.80
2022-11-19T18:05:20.069Z,63.80
2022-11-19T18:07:47.045Z,63.90
2022-11-19T18:10:14.289Z,63.90
2022-11-19T18:12:42.026Z,63.80
2022-11-19T18:15:17.069Z,63.20
2022-11-19T18:17:46.024Z,63.90
2022-11-19T18:20:13.223Z,63.80
2022-11-19T18:22:41.125Z,63.80
2022-11-19T18:25:19.484Z,63.90
2022-11-19T18:27:46.888Z,64.00
